createdAt,value
2018-12-18T00:00:17.479Z,21.3
2018-12-18T00:01:17.479Z,6.6
2018-12-18T00:02:17.477Z,18.3
2018-12-18T00:03:17.490Z,30.3
2018-12-18T00:04:17.423Z,27.3
2018-12-18T00:05:17.454Z,15.4
2018-12-18T00:06:17.473Z,36.3
2018-12-18T00:07:17.550Z,15.4
2018-12-18T00:08:17.449Z,21.3
2018-12-18T00:09:17.416Z,21.3
2018-12-18T00:10:17.458Z,18.3
2018-12-18T00:11:17.467Z,18.3
2018-12-18T00:12:17.541Z,15.4
2018-12-18T00:13:17.482Z,36.3
2018-12-18T00:14:17.410Z,24.3
2018-12-18T00:15:17.443Z,21.3
2018-12-18T00:16:17.537Z,30.3
2018-12-18T00:17:17.526Z,12.4
2018-12-18T00:18:17.609Z,27.3
2018-12-18T00:19:17.460Z,24.3
2018-12-18T00:20:17.402Z,15.4
2018-12-18T00:21:17.458Z,27.3
2018-12-18T00:22:17.458Z,21.3
2018-12-18T00:23:17.523Z,18.3
2018-12-18T00:24:17.453Z,27.3
2018-12-18T00:25:17.410Z,15.4
2018-12-18T00:26:17.475Z,15.4
2018-12-18T00:27:17.891Z,33.3
2018-12-18T00:28:17.478Z,15.4
2018-12-18T00:29:17.467Z,21.3
2018-12-18T00:30:17.484Z,21.3
2018-12-18T00:31:17.419Z,15.4
2018-12-18T00:32:17.523Z,15.4
2018-12-18T00:33:17.470Z,15.4
2018-12-18T00:34:17.510Z,9.5
2018-12-18T00:35:17.447Z,12.4
2018-12-18T00:36:17.402Z,12.4
2018-12-18T00:37:17.455Z,18.3
2018-12-18T00:38:17.522Z,24.3
2018-12-18T00:39:17.464Z,27.3
2018-12-18T00:40:17.536Z,21.3
2018-12-18T00:41:17.399Z,15.4
2018-12-18T00:42:17.443Z,18.3
2018-12-18T00:43:17.437Z,12.4
2018-12-18T00:44:17.448Z,15.4
2018-12-18T00:45:17.531Z,18.3
2018-12-18T00:46:17.441Z,6.6
2018-12-18T00:47:17.395Z,9.5
2018-12-18T00:48:17.452Z,30.3
2018-12-18T00:49:17.470Z,15.4
2018-12-18T00:50:17.501Z,21.3
2018-12-18T00:51:17.448Z,21.3
2018-12-18T00:52:17.433Z,12.4
2018-12-18T00:53:17.460Z,45.3
2018-12-18T00:54:17.537Z,27.3
2018-12-18T00:55:17.457Z,24.3
2018-12-18T00:56:17.464Z,36.3
2018-12-18T00:57:17.453Z,42.3
2018-12-18T00:58:17.500Z,9.5
2018-12-18T00:59:17.596Z,30.3
2018-12-18T01:00:17.470Z,12.4
2018-12-18T01:01:17.516Z,3.9
2018-12-18T01:02:17.507Z,18.3
2018-12-18T01:03:17.430Z,24.3
2018-12-18T01:04:17.419Z,24.3
2018-12-18T01:05:17.447Z,18.3
2018-12-18T01:06:17.525Z,24.3
2018-12-18T01:07:17.451Z,33.3
2018-12-18T01:08:17.464Z,24.3
2018-12-18T01:09:17.413Z,27.3
2018-12-18T01:10:17.472Z,36.3
2018-12-18T01:11:17.535Z,21.3
2018-12-18T01:12:17.475Z,27.3
2018-12-18T01:13:17.470Z,33.3
2018-12-18T01:14:17.492Z,54.3
2018-12-18T01:15:17.432Z,36.3
2018-12-18T01:16:17.524Z,15.4
2018-12-18T01:17:17.474Z,21.3
2018-12-18T01:18:17.479Z,18.3
2018-12-18T01:19:17.442Z,24.3
2018-12-18T01:20:17.400Z,36.3
2018-12-18T01:21:17.528Z,24.3
2018-12-18T01:22:17.503Z,27.3
2018-12-18T01:23:17.453Z,15.4
2018-12-18T01:24:17.437Z,21.3
2018-12-18T01:25:17.494Z,24.3
2018-12-18T01:26:17.456Z,9.5
2018-12-18T01:27:17.452Z,27.3
2018-12-18T01:28:17.491Z,36.3
2018-12-18T01:29:17.509Z,27.3
2018-12-18T01:30:17.414Z,21.3
2018-12-18T01:31:17.397Z,18.3
2018-12-18T01:32:17.452Z,21.3
2018-12-18T01:33:17.460Z,27.3
2018-12-18T01:34:17.506Z,15.4
2018-12-18T01:35:17.429Z,24.3
2018-12-18T01:36:17.378Z,36.3
2018-12-18T01:37:17.451Z,18.3
2018-12-18T01:38:17.572Z,15.4
2018-12-18T01:39:17.464Z,18.3
2018-12-18T01:40:17.447Z,30.3
2018-12-18T01:41:17.464Z,15.4
2018-12-18T01:42:17.439Z,18.3
2018-12-18T01:43:17.461Z,15.4
2018-12-18T01:44:17.420Z,15.4
2018-12-18T01:45:17.483Z,18.3
2018-12-18T01:46:17.446Z,33.3
2018-12-18T01:47:17.373Z,18.3
2018-12-18T01:48:17.440Z,15.4
2018-12-18T01:49:17.423Z,27.3
2018-12-18T01:50:17.427Z,21.3
2018-12-18T01:51:17.539Z,18.3
2018-12-18T01:52:17.463Z,51.3
2018-12-18T01:53:17.431Z,36.3
2018-12-18T01:54:17.437Z,24.3
2018-12-18T01:55:17.443Z,12.4
2018-12-18T01:56:17.422Z,36.3
2018-12-18T01:57:17.486Z,30.3
2018-12-18T01:58:17.374Z,21.3
2018-12-18T01:59:17.433Z,21.3
2018-12-18T02:00:17.506Z,15.4
2018-12-18T02:01:17.481Z,24.3
2018-12-18T02:02:17.508Z,21.3
2018-12-18T02:03:17.382Z,21.3
2018-12-18T02:04:17.384Z,18.3
2018-12-18T02:05:17.427Z,9.5
2018-12-18T02:06:17.477Z,18.3
2018-12-18T02:07:17.477Z,30.3
2018-12-18T02:08:17.458Z,18.3
2018-12-18T02:09:17.397Z,39.3
2018-12-18T02:10:17.511Z,33.3
2018-12-18T02:11:17.489Z,24.3
2018-12-18T02:12:17.419Z,21.3
2018-12-18T02:13:17.545Z,15.4
2018-12-18T02:14:17.372Z,36.3
2018-12-18T02:15:17.408Z,33.3
2018-12-18T02:16:17.442Z,27.3
2018-12-18T02:17:17.447Z,18.3
2018-12-18T02:18:17.477Z,33.3
2018-12-18T02:19:17.399Z,9.5
2018-12-18T02:20:17.432Z,12.4
2018-12-18T02:21:17.494Z,21.3
2018-12-18T02:22:17.450Z,18.3
2018-12-18T02:23:17.421Z,27.3
2018-12-18T02:24:17.415Z,24.3
2018-12-18T02:25:17.388Z,15.4
2018-12-18T02:26:17.456Z,15.4
2018-12-18T02:27:17.562Z,9.5
2018-12-18T02:28:17.391Z,24.3
2018-12-18T02:29:17.550Z,12.4
2018-12-18T02:30:17.390Z,15.4
2018-12-18T02:31:17.374Z,18.3
2018-12-18T02:32:17.497Z,6.6
2018-12-18T02:33:17.490Z,27.3
2018-12-18T02:34:17.408Z,9.5
2018-12-18T02:35:17.411Z,24.3
2018-12-18T02:36:17.350Z,33.3
2018-12-18T02:37:17.406Z,9.5
2018-12-18T02:38:17.503Z,15.4
2018-12-18T02:39:17.566Z,27.3
2018-12-18T02:40:17.417Z,21.3
2018-12-18T02:41:17.407Z,21.3
2018-12-18T02:42:17.405Z,9.5
2018-12-18T02:43:17.405Z,21.3
2018-12-18T02:44:17.475Z,21.3
2018-12-18T02:45:17.467Z,33.3
2018-12-18T02:46:17.514Z,24.3
2018-12-18T02:47:17.440Z,30.3
2018-12-18T02:48:17.403Z,24.3
2018-12-18T02:49:17.416Z,18.3
2018-12-18T02:50:17.434Z,15.4
2018-12-18T02:51:17.406Z,12.4
2018-12-18T02:52:17.457Z,33.3
2018-12-18T02:53:17.346Z,36.3
2018-12-18T02:54:17.468Z,15.4
2018-12-18T02:55:17.392Z,24.3
2018-12-18T02:56:17.420Z,12.4
2018-12-18T02:57:17.387Z,21.3
2018-12-18T02:58:17.444Z,33.3
2018-12-18T02:59:17.391Z,18.3
2018-12-18T03:00:17.391Z,30.3
2018-12-18T03:01:17.412Z,42.3
2018-12-18T03:02:17.404Z,21.3
2018-12-18T03:03:17.433Z,24.3
2018-12-18T03:04:24.036Z,45.3
2018-12-18T03:05:17.395Z,24.3
2018-12-18T03:06:17.395Z,24.3
2018-12-18T03:07:17.417Z,18.3
2018-12-18T03:08:17.456Z,21.3
2018-12-18T03:09:17.405Z,27.3
2018-12-18T03:10:17.401Z,24.3
2018-12-18T03:11:17.384Z,39.3
2018-12-18T03:12:17.411Z,24.3
2018-12-18T03:13:17.498Z,36.3
2018-12-18T03:14:17.369Z,30.3
2018-12-18T03:15:17.478Z,18.3
2018-12-18T03:16:17.388Z,18.3
2018-12-18T03:17:17.387Z,12.4
2018-12-18T03:18:17.485Z,15.4
2018-12-18T03:19:17.414Z,18.3
2018-12-18T03:20:17.330Z,21.3
2018-12-18T03:21:17.402Z,27.3
2018-12-18T03:22:17.408Z,27.3
2018-12-18T03:23:17.472Z,24.3
2018-12-18T03:24:17.386Z,12.4
2018-12-18T03:25:17.324Z,18.3
2018-12-18T03:26:17.436Z,18.3
2018-12-18T03:27:17.395Z,18.3
2018-12-18T03:28:17.381Z,18.3
2018-12-18T03:29:17.372Z,33.3
2018-12-18T03:30:17.431Z,24.3
2018-12-18T03:31:17.342Z,27.3
2018-12-18T03:32:17.402Z,15.4
2018-12-18T03:33:17.381Z,24.3
2018-12-18T03:34:17.462Z,12.4
2018-12-18T03:35:17.404Z,24.3
2018-12-18T03:36:17.377Z,30.3
2018-12-18T03:37:17.428Z,30.3
2018-12-18T03:38:17.377Z,18.3
2018-12-18T03:39:17.387Z,15.4
2018-12-18T03:40:17.445Z,21.3
2018-12-18T03:41:17.319Z,36.3
2018-12-18T03:42:17.387Z,30.3
2018-12-18T03:43:17.437Z,15.4
2018-12-18T03:44:17.392Z,39.3
2018-12-18T03:45:17.376Z,27.3
2018-12-18T03:46:17.398Z,30.3
2018-12-18T03:47:17.376Z,30.3
2018-12-18T03:48:17.380Z,42.3
2018-12-18T03:49:17.373Z,36.3
2018-12-18T03:50:17.386Z,33.3
2018-12-18T03:51:17.431Z,24.3
2018-12-18T03:52:17.309Z,24.3
2018-12-18T03:53:17.403Z,30.3
2018-12-18T03:54:17.417Z,24.3
2018-12-18T03:55:17.386Z,18.3
2018-12-18T03:56:17.350Z,18.3
2018-12-18T03:57:17.352Z,18.3
2018-12-18T03:58:17.362Z,12.4
2018-12-18T03:59:17.366Z,18.3
2018-12-18T04:00:17.389Z,12.4
2018-12-18T04:01:17.345Z,9.5
2018-12-18T04:02:17.372Z,39.3
2018-12-18T04:03:17.374Z,27.3
2018-12-18T04:04:17.360Z,21.3
2018-12-18T04:05:17.347Z,30.3
2018-12-18T04:06:17.382Z,36.3
2018-12-18T04:07:17.559Z,18.3
2018-12-18T04:08:17.714Z,21.3
2018-12-18T04:09:17.317Z,21.3
2018-12-18T04:10:17.372Z,30.3
2018-12-18T04:11:17.434Z,24.3
2018-12-18T04:12:17.358Z,39.3
2018-12-18T04:13:17.383Z,36.3
2018-12-18T04:14:17.406Z,18.3
2018-12-18T04:15:17.462Z,39.3
2018-12-18T04:16:17.337Z,18.3
2018-12-18T04:17:17.384Z,24.3
2018-12-18T04:18:17.402Z,45.3
2018-12-18T04:19:17.309Z,21.3
2018-12-18T04:20:17.418Z,27.3
2018-12-18T04:21:17.428Z,12.4
2018-12-18T04:22:17.361Z,18.3
2018-12-18T04:23:17.405Z,36.3
2018-12-18T04:24:17.357Z,15.4
2018-12-18T04:25:17.279Z,15.4
2018-12-18T04:26:17.438Z,12.4
2018-12-18T04:27:17.392Z,21.3
2018-12-18T04:28:17.428Z,6.6
2018-12-18T04:29:17.351Z,6.6
2018-12-18T04:30:17.315Z,15.4
2018-12-18T04:31:17.322Z,3.9
2018-12-18T04:32:17.428Z,12.4
2018-12-18T04:33:17.377Z,18.3
2018-12-18T04:34:17.362Z,9.5
2018-12-18T04:35:17.454Z,9.5
2018-12-18T04:36:17.291Z,9.5
2018-12-18T04:37:17.434Z,3.9
2018-12-18T04:38:17.370Z,9.5
2018-12-18T04:39:17.359Z,1.8
2018-12-18T04:40:17.338Z,6.6
2018-12-18T04:41:17.308Z,6.6
2018-12-18T04:42:17.379Z,3.9
2018-12-18T04:43:17.354Z,9.5
2018-12-18T04:44:17.341Z,18.3
2018-12-18T04:45:18.221Z,18.3
2018-12-18T04:46:17.332Z,6.6
2018-12-18T04:47:17.365Z,9.5
2018-12-18T04:48:17.349Z,9.5
2018-12-18T04:49:17.335Z,18.3
2018-12-18T04:50:17.347Z,18.3
2018-12-18T04:51:17.347Z,9.5
2018-12-18T04:52:17.339Z,18.3
2018-12-18T04:53:17.339Z,6.6
2018-12-18T04:54:17.342Z,30.3
2018-12-18T04:55:17.414Z,12.4
2018-12-18T04:56:17.411Z,21.3
2018-12-18T04:57:17.355Z,3.9
2018-12-18T04:58:17.400Z,12.4
2018-12-18T04:59:17.399Z,6.6
2018-12-18T05:00:17.340Z,24.3
2018-12-18T05:01:17.350Z,9.5
2018-12-18T05:02:17.316Z,15.4
2018-12-18T05:03:17.369Z,6.6
2018-12-18T05:04:17.346Z,15.4
2018-12-18T05:05:17.376Z,6.6
2018-12-18T05:06:17.336Z,6.6
2018-12-18T05:07:17.374Z,15.4
2018-12-18T05:08:17.358Z,12.4
2018-12-18T05:09:17.278Z,12.4
2018-12-18T05:10:17.411Z,9.5
2018-12-18T05:11:17.322Z,6.6
2018-12-18T05:12:17.331Z,9.5
2018-12-18T05:13:17.362Z,21.3
2018-12-18T05:14:17.334Z,21.3
2018-12-18T05:15:17.378Z,12.4
2018-12-18T05:16:17.371Z,6.6
2018-12-18T05:17:17.316Z,3.9
2018-12-18T05:18:17.361Z,36.3
2018-12-18T05:19:17.279Z,9.5
2018-12-18T05:20:17.337Z,9.5
2018-12-18T05:21:17.363Z,12.4
2018-12-18T05:22:17.365Z,18.3
2018-12-18T05:23:17.316Z,21.3
2018-12-18T05:24:17.298Z,18.3
2018-12-18T05:25:17.255Z,9.5
2018-12-18T05:26:17.408Z,9.5
2018-12-18T05:27:17.396Z,15.4
2018-12-18T05:28:18.629Z,6.6
2018-12-18T05:29:17.291Z,6.6
2018-12-18T05:30:17.296Z,15.4
2018-12-18T05:31:17.330Z,1.8
2018-12-18T05:32:17.332Z,15.4
2018-12-18T05:33:17.298Z,24.3
2018-12-18T05:34:17.300Z,9.5
2018-12-18T05:35:17.319Z,9.5
2018-12-18T05:36:17.338Z,6.6
2018-12-18T05:37:17.314Z,6.6
2018-12-18T05:38:17.449Z,9.5
2018-12-18T05:39:17.308Z,3.9
2018-12-18T05:40:17.317Z,1.8
2018-12-18T05:41:17.383Z,0
2018-12-18T05:42:17.315Z,18.3
2018-12-18T05:43:17.315Z,6.6
2018-12-18T05:44:17.397Z,9.5
2018-12-18T05:45:17.308Z,3.9
2018-12-18T05:46:17.328Z,6.6
2018-12-18T05:47:17.341Z,18.3
2018-12-18T05:48:17.373Z,9.5
2018-12-18T05:49:17.316Z,21.3
2018-12-18T05:50:17.387Z,3.9
2018-12-18T05:51:17.304Z,9.5
2018-12-18T05:52:17.249Z,12.4
2018-12-18T05:53:17.320Z,6.6
2018-12-18T05:54:17.302Z,6.6
2018-12-18T05:55:17.360Z,1.8
2018-12-18T05:56:17.300Z,12.4
2018-12-18T05:57:17.310Z,9.5
2018-12-18T05:58:17.239Z,6.6
2018-12-18T05:59:17.365Z,3.9
2018-12-18T06:00:17.318Z,3.9
2018-12-18T06:01:17.295Z,3.9
2018-12-18T06:02:17.277Z,3.9
2018-12-18T06:03:17.236Z,1.8
2018-12-18T06:04:17.358Z,0
2018-12-18T06:05:17.307Z,6.6
2018-12-18T06:06:17.304Z,0
2018-12-18T06:07:17.360Z,6.6
2018-12-18T06:08:17.271Z,3.9
2018-12-18T06:09:17.290Z,1.8
2018-12-18T06:10:17.342Z,1.8
2018-12-18T06:11:17.305Z,0
2018-12-18T06:12:17.298Z,3.9
2018-12-18T06:13:17.284Z,6.6
2018-12-18T06:14:17.297Z,3.9
2018-12-18T06:15:17.273Z,3.9
2018-12-18T06:16:17.278Z,6.6
2018-12-18T06:17:17.272Z,1.8
2018-12-18T06:18:17.317Z,1.8
2018-12-18T06:19:17.332Z,9.5
2018-12-18T06:20:17.251Z,6.6
2018-12-18T06:21:17.371Z,9.5
2018-12-18T06:22:17.301Z,9.5
2018-12-18T06:23:17.374Z,3.9
2018-12-18T06:24:17.370Z,3.9
2018-12-18T06:25:19.043Z,6.6
2018-12-18T06:26:17.300Z,9.5
2018-12-18T06:27:17.366Z,6.6
2018-12-18T06:28:17.306Z,6.6
2018-12-18T06:29:17.338Z,3.9
2018-12-18T06:30:17.309Z,6.6
2018-12-18T06:31:17.234Z,1.8
2018-12-18T06:32:17.268Z,6.6
2018-12-18T06:33:17.289Z,1.8
2018-12-18T06:34:17.355Z,6.6
2018-12-18T06:35:17.312Z,0
2018-12-18T06:36:17.217Z,15.4
2018-12-18T06:37:17.268Z,6.6
2018-12-18T06:38:17.338Z,0
2018-12-18T06:39:17.329Z,9.5
2018-12-18T06:40:17.272Z,3.9
2018-12-18T06:41:17.225Z,9.5
2018-12-18T06:42:17.244Z,9.5
2018-12-18T06:43:17.262Z,0
2018-12-18T06:44:17.335Z,6.6
2018-12-18T06:45:17.261Z,6.6
2018-12-18T06:46:17.266Z,1.8
2018-12-18T06:47:17.299Z,3.9
2018-12-18T06:48:17.262Z,3.9
2018-12-18T06:49:17.252Z,6.6
2018-12-18T06:50:17.335Z,9.5
2018-12-18T06:51:17.289Z,3.9
2018-12-18T06:52:17.213Z,9.5
2018-12-18T06:53:17.330Z,6.6
2018-12-18T06:54:17.258Z,12.4
2018-12-18T06:55:17.269Z,18.3
2018-12-18T06:56:17.274Z,9.5
2018-12-18T06:57:17.284Z,9.5
2018-12-18T06:58:17.290Z,9.5
2018-12-18T06:59:17.255Z,9.5
2018-12-18T07:00:17.262Z,3.9
2018-12-18T07:01:17.287Z,9.5
2018-12-18T07:02:17.310Z,1.8
2018-12-18T07:03:17.207Z,9.5
2018-12-18T07:04:17.247Z,1.8
2018-12-18T07:05:19.474Z,12.4
2018-12-18T07:06:17.341Z,3.9
2018-12-18T07:07:17.252Z,0
2018-12-18T07:08:17.201Z,3.9
2018-12-18T07:09:17.223Z,0
2018-12-18T07:10:17.268Z,6.6
2018-12-18T07:11:17.318Z,0
2018-12-18T07:12:17.276Z,6.6
2018-12-18T07:13:17.263Z,6.6
2018-12-18T07:14:17.216Z,6.6
2018-12-18T07:15:17.252Z,6.6
2018-12-18T07:16:17.327Z,6.6
2018-12-18T07:17:17.309Z,18.3
2018-12-18T07:18:17.261Z,18.3
2018-12-18T07:19:17.206Z,3.9
2018-12-18T07:20:17.219Z,6.6
2018-12-18T07:21:17.241Z,3.9
2018-12-18T07:22:17.308Z,6.6
2018-12-18T07:23:17.335Z,3.9
2018-12-18T07:24:17.251Z,9.5
2018-12-18T07:25:17.203Z,12.4
2018-12-18T07:26:17.260Z,27.3
2018-12-18T07:27:17.264Z,12.4
2018-12-18T07:28:17.302Z,6.6
2018-12-18T07:29:17.266Z,6.6
2018-12-18T07:30:17.251Z,12.4
2018-12-18T07:31:17.194Z,9.5
2018-12-18T07:32:17.263Z,6.6
2018-12-18T07:33:17.241Z,6.6
2018-12-18T07:34:17.320Z,9.5
2018-12-18T07:35:23.035Z,6.6
2018-12-18T07:36:17.262Z,3.9
2018-12-18T07:37:17.243Z,3.9
2018-12-18T07:38:17.303Z,1.8
2018-12-18T07:39:17.267Z,18.3
2018-12-18T07:40:17.230Z,18.3
2018-12-18T07:41:17.246Z,18.3
2018-12-18T07:42:17.241Z,12.4
2018-12-18T07:43:17.233Z,3.9
2018-12-18T07:44:17.265Z,1.8
2018-12-18T07:45:17.222Z,6.6
2018-12-18T07:46:17.357Z,3.9
2018-12-18T07:47:17.253Z,6.6
2018-12-18T07:48:17.224Z,15.4
2018-12-18T07:49:17.243Z,12.4
2018-12-18T07:50:17.242Z,15.4
2018-12-18T07:51:17.239Z,0
2018-12-18T07:52:17.253Z,6.6
2018-12-18T07:53:17.324Z,6.6
2018-12-18T07:54:17.247Z,9.5
2018-12-18T07:55:17.239Z,6.6
2018-12-18T07:56:17.209Z,3.9
2018-12-18T07:57:17.248Z,15.4
2018-12-18T07:58:17.220Z,9.5
2018-12-18T07:59:17.226Z,9.5
2018-12-18T08:00:17.208Z,6.6
2018-12-18T08:01:17.278Z,3.9
2018-12-18T08:02:17.301Z,12.4
2018-12-18T08:03:17.211Z,9.5
2018-12-18T08:04:17.244Z,0
2018-12-18T08:05:17.228Z,18.3
2018-12-18T08:06:17.291Z,12.4
2018-12-18T08:07:17.211Z,6.6
2018-12-18T08:08:17.200Z,6.6
2018-12-18T08:09:17.240Z,9.5
2018-12-18T08:10:17.222Z,3.9
2018-12-18T08:11:17.289Z,9.5
2018-12-18T08:12:17.214Z,9.5
2018-12-18T08:13:17.309Z,1.8
2018-12-18T08:14:17.160Z,9.5
2018-12-18T08:15:17.241Z,12.4
2018-12-18T08:16:17.235Z,12.4
2018-12-18T08:17:17.233Z,3.9
2018-12-18T08:18:17.315Z,27.3
2018-12-18T08:19:17.205Z,15.4
2018-12-18T08:20:17.246Z,1.8
2018-12-18T08:21:17.240Z,12.4
2018-12-18T08:22:17.300Z,3.9
2018-12-18T08:23:17.293Z,6.6
2018-12-18T08:24:17.230Z,0
2018-12-18T08:25:17.197Z,0
2018-12-18T08:26:17.248Z,1.8
2018-12-18T08:27:17.417Z,0
2018-12-18T08:28:17.294Z,0
2018-12-18T08:29:17.285Z,0
2018-12-18T08:30:17.169Z,1.8
2018-12-18T08:31:17.187Z,1.8
2018-12-18T08:32:17.299Z,3.9
2018-12-18T08:33:17.368Z,0
2018-12-18T08:34:17.224Z,0
2018-12-18T08:35:17.240Z,3.9
2018-12-18T08:36:17.181Z,3.9
2018-12-18T08:37:17.232Z,0
2018-12-18T08:38:17.292Z,0
2018-12-18T08:39:17.334Z,0
2018-12-18T08:40:17.249Z,0
2018-12-18T08:41:17.208Z,0
2018-12-18T08:42:17.220Z,0
2018-12-18T08:43:17.279Z,0
2018-12-18T08:44:17.237Z,0
2018-12-18T08:45:17.297Z,0
2018-12-18T08:46:17.228Z,0
2018-12-18T08:47:17.157Z,3.9
2018-12-18T08:48:17.210Z,0
2018-12-18T08:49:17.217Z,3.9
2018-12-18T08:50:17.309Z,0
2018-12-18T08:51:17.199Z,0
2018-12-18T08:52:17.178Z,1.8
2018-12-18T08:53:17.208Z,0
2018-12-18T08:54:17.210Z,3.9
2018-12-18T08:55:17.302Z,9.5
2018-12-18T08:56:17.217Z,3.9
2018-12-18T08:57:17.161Z,1.8
2018-12-18T08:58:17.211Z,3.9
2018-12-18T08:59:17.219Z,6.6
2018-12-18T09:00:17.309Z,1.8
2018-12-18T09:01:17.203Z,0
2018-12-18T09:02:17.234Z,0
2018-12-18T09:03:17.157Z,0
2018-12-18T09:04:17.295Z,0
2018-12-18T09:05:17.212Z,0
2018-12-18T09:06:17.298Z,3.9
2018-12-18T09:07:17.233Z,3.9
2018-12-18T09:08:17.184Z,6.6
2018-12-18T09:09:17.239Z,9.5
2018-12-18T09:10:17.223Z,0
2018-12-18T09:11:17.302Z,3.9
2018-12-18T09:12:17.194Z,6.6
2018-12-18T09:13:17.195Z,6.6
2018-12-18T09:14:17.180Z,6.6
2018-12-18T09:15:17.279Z,3.9
2018-12-18T09:16:17.291Z,9.5
2018-12-18T09:17:17.197Z,0
2018-12-18T09:18:17.255Z,0
2018-12-18T09:19:17.165Z,3.9
2018-12-18T09:20:17.199Z,0
2018-12-18T09:21:17.255Z,0
2018-12-18T09:22:17.197Z,0
2018-12-18T09:23:17.221Z,0
2018-12-18T09:24:17.208Z,0
2018-12-18T09:25:17.178Z,0
2018-12-18T09:26:17.275Z,0
2018-12-18T09:27:17.205Z,3.9
2018-12-18T09:28:17.196Z,0
2018-12-18T09:29:17.221Z,1.8
2018-12-18T09:30:17.146Z,0
2018-12-18T09:31:17.265Z,0
2018-12-18T09:32:17.208Z,0
2018-12-18T09:33:17.192Z,0
2018-12-18T09:34:17.209Z,0
2018-12-18T09:35:17.198Z,3.9
2018-12-18T09:36:17.225Z,3.9
2018-12-18T09:37:17.285Z,3.9
2018-12-18T09:38:17.193Z,3.9
2018-12-18T09:39:17.192Z,6.6
2018-12-18T09:40:17.208Z,6.6
2018-12-18T09:41:17.159Z,6.6
2018-12-18T09:42:17.260Z,6.6
2018-12-18T09:43:17.253Z,3.9
2018-12-18T09:44:17.203Z,1.8
2018-12-18T09:45:17.188Z,0
2018-12-18T09:46:17.166Z,3.9
2018-12-18T09:47:17.196Z,6.6
2018-12-18T09:48:17.254Z,3.9
2018-12-18T09:49:17.178Z,6.6
2018-12-18T09:50:17.198Z,0
2018-12-18T09:51:17.212Z,6.6
2018-12-18T09:52:17.229Z,3.9
2018-12-18T09:53:17.200Z,3.9
2018-12-18T09:54:17.197Z,1.8
2018-12-18T09:55:17.169Z,3.9
2018-12-18T09:56:17.197Z,6.6
2018-12-18T09:57:17.272Z,3.9
2018-12-18T09:58:17.127Z,0
2018-12-18T09:59:17.266Z,0
2018-12-18T10:00:17.194Z,1.8
2018-12-18T10:01:17.181Z,9.5
2018-12-18T10:02:17.192Z,3.9
2018-12-18T10:03:17.145Z,1.8
2018-12-18T10:04:17.280Z,0
2018-12-18T10:05:17.182Z,6.6
2018-12-18T10:06:17.176Z,6.6
2018-12-18T10:07:17.182Z,3.9
2018-12-18T10:08:17.130Z,1.8
2018-12-18T10:09:17.214Z,6.6
2018-12-18T10:10:17.202Z,0
2018-12-18T10:11:17.189Z,3.9
2018-12-18T10:12:17.200Z,6.6
2018-12-18T10:13:17.203Z,3.9
2018-12-18T10:14:17.212Z,1.8
2018-12-18T10:15:17.213Z,3.9
2018-12-18T10:16:17.177Z,12.4
2018-12-18T10:17:17.315Z,1.8
2018-12-18T10:18:17.198Z,12.4
2018-12-18T10:19:17.187Z,1.8
2018-12-18T10:20:17.149Z,9.5
2018-12-18T10:21:17.246Z,6.6
2018-12-18T10:22:17.244Z,0
2018-12-18T10:23:17.158Z,0
2018-12-18T10:24:17.904Z,1.8
2018-12-18T10:25:17.202Z,12.4
2018-12-18T10:26:17.195Z,9.5
2018-12-18T10:27:17.222Z,6.6
2018-12-18T10:28:17.188Z,9.5
2018-12-18T10:29:17.248Z,3.9
2018-12-18T10:30:17.185Z,6.6
2018-12-18T10:31:17.233Z,6.6
2018-12-18T10:32:17.178Z,6.6
2018-12-18T10:33:17.176Z,12.4
2018-12-18T10:34:17.226Z,1.8
2018-12-18T10:35:17.137Z,1.8
2018-12-18T10:36:17.143Z,3.9
2018-12-18T10:37:17.181Z,12.4
2018-12-18T10:38:17.211Z,6.6
2018-12-18T10:39:17.241Z,18.3
2018-12-18T10:40:18.087Z,9.5
2018-12-18T10:41:17.207Z,6.6
2018-12-18T10:42:17.180Z,6.6
2018-12-18T10:43:17.176Z,6.6
2018-12-18T10:44:17.174Z,9.5
2018-12-18T10:45:17.176Z,6.6
2018-12-18T10:46:17.206Z,1.8
2018-12-18T10:47:17.193Z,6.6
2018-12-18T10:48:17.192Z,1.8
2018-12-18T10:49:17.242Z,12.4
2018-12-18T10:50:17.180Z,12.4
2018-12-18T10:51:17.197Z,3.9
2018-12-18T10:52:17.126Z,1.8
2018-12-18T10:53:17.188Z,18.3
2018-12-18T10:54:17.253Z,12.4
2018-12-18T10:55:17.199Z,12.4
2018-12-18T10:56:17.171Z,3.9
2018-12-18T10:57:17.141Z,1.8
2018-12-18T10:58:23.774Z,3.9
2018-12-18T10:59:18.959Z,18.3
2018-12-18T11:00:17.195Z,15.4
2018-12-18T11:01:17.177Z,9.5
2018-12-18T11:02:17.181Z,6.6
2018-12-18T11:03:17.131Z,18.3
2018-12-18T11:04:17.253Z,15.4
2018-12-18T11:05:17.179Z,18.3
2018-12-18T11:06:17.213Z,12.4
2018-12-18T11:07:17.196Z,3.9
2018-12-18T11:08:17.125Z,9.5
2018-12-18T11:09:17.213Z,12.4
2018-12-18T11:10:17.176Z,18.3
2018-12-18T11:11:17.286Z,3.9
2018-12-18T11:12:17.171Z,9.5
2018-12-18T11:13:17.187Z,6.6
2018-12-18T11:14:17.138Z,9.5
2018-12-18T11:15:17.267Z,21.3
2018-12-18T11:16:17.197Z,12.4
2018-12-18T11:17:17.239Z,9.5
2018-12-18T11:18:17.176Z,15.4
2018-12-18T11:19:17.156Z,12.4
2018-12-18T11:20:17.173Z,9.5
2018-12-18T11:21:17.256Z,21.3
2018-12-18T11:22:17.177Z,15.4
2018-12-18T11:23:17.260Z,18.3
2018-12-18T11:24:17.249Z,18.3
2018-12-18T11:25:17.134Z,24.3
2018-12-18T11:26:17.183Z,21.3
2018-12-18T11:27:17.216Z,27.3
2018-12-18T11:28:17.246Z,9.5
2018-12-18T11:29:17.181Z,18.3
2018-12-18T11:30:17.143Z,15.4
2018-12-18T11:31:17.249Z,12.4
2018-12-18T11:32:17.278Z,27.3
2018-12-18T11:33:17.193Z,21.3
2018-12-18T11:34:17.187Z,15.4
2018-12-18T11:35:17.237Z,30.3
2018-12-18T11:36:19.068Z,24.3
2018-12-18T11:37:17.204Z,27.3
2018-12-18T11:38:17.175Z,24.3
2018-12-18T11:39:17.182Z,30.3
2018-12-18T11:40:17.182Z,30.3
2018-12-18T11:41:17.236Z,21.3
2018-12-18T11:42:17.192Z,12.4
2018-12-18T11:43:17.176Z,9.5
2018-12-18T11:44:17.167Z,6.6
2018-12-18T11:45:17.203Z,9.5
2018-12-18T11:46:17.213Z,15.4
2018-12-18T11:47:17.148Z,6.6
2018-12-18T11:48:17.268Z,15.4
2018-12-18T11:49:17.187Z,6.6
2018-12-18T11:50:17.193Z,6.6
2018-12-18T11:51:17.207Z,6.6
2018-12-18T11:52:17.226Z,18.3
2018-12-18T11:53:17.172Z,3.9
2018-12-18T11:54:17.263Z,15.4
2018-12-18T11:55:17.210Z,12.4
2018-12-18T11:56:17.190Z,9.5
2018-12-18T11:57:17.135Z,9.5
2018-12-18T11:58:17.222Z,6.6
2018-12-18T11:59:17.797Z,6.6
2018-12-18T12:00:17.243Z,18.3
2018-12-18T12:01:17.167Z,24.3
2018-12-18T12:02:17.159Z,6.6
2018-12-18T12:03:17.134Z,0
2018-12-18T12:04:17.171Z,6.6
2018-12-18T12:05:17.224Z,9.5
2018-12-18T12:06:22.821Z,6.6
2018-12-18T12:07:17.174Z,3.9
2018-12-18T12:08:17.250Z,3.9
2018-12-18T12:09:17.143Z,15.4
2018-12-18T12:10:17.188Z,12.4
2018-12-18T12:11:17.183Z,9.5
2018-12-18T12:12:17.197Z,12.4
2018-12-18T12:13:17.266Z,15.4
2018-12-18T12:14:17.138Z,9.5
2018-12-18T12:15:17.174Z,9.5
2018-12-18T12:16:17.172Z,9.5
2018-12-18T12:17:17.175Z,3.9
2018-12-18T12:18:17.258Z,3.9
2018-12-18T12:19:17.127Z,9.5
2018-12-18T12:20:17.194Z,9.5
2018-12-18T12:21:17.163Z,9.5
2018-12-18T12:22:17.248Z,12.4
2018-12-18T12:23:17.158Z,3.9
2018-12-18T12:24:17.115Z,3.9
2018-12-18T12:25:17.183Z,6.6
2018-12-18T12:26:17.161Z,18.3
2018-12-18T12:27:17.199Z,9.5
2018-12-18T12:28:17.181Z,12.4
2018-12-18T12:29:17.231Z,18.3
2018-12-18T12:30:17.113Z,21.3
2018-12-18T12:31:17.204Z,15.4
2018-12-18T12:32:17.166Z,12.4
2018-12-18T12:33:17.158Z,15.4
2018-12-18T12:34:17.250Z,15.4
2018-12-18T12:35:17.127Z,12.4
2018-12-18T12:36:17.152Z,9.5
2018-12-18T12:37:17.167Z,18.3
2018-12-18T12:38:17.173Z,18.3
2018-12-18T12:39:17.250Z,9.5
2018-12-18T12:40:17.196Z,12.4
2018-12-18T12:41:17.162Z,6.6
2018-12-18T12:42:17.155Z,12.4
2018-12-18T12:43:17.158Z,6.6
2018-12-18T12:44:17.210Z,12.4
2018-12-18T12:45:17.155Z,6.6
2018-12-18T12:46:17.114Z,6.6
2018-12-18T12:47:17.129Z,6.6
2018-12-18T12:48:17.186Z,1.8
2018-12-18T12:49:17.247Z,1.8
2018-12-18T12:50:17.118Z,6.6
2018-12-18T12:51:17.159Z,12.4
2018-12-18T12:52:17.132Z,6.6
2018-12-18T12:53:17.172Z,3.9
2018-12-18T12:54:17.243Z,9.5
2018-12-18T12:55:17.217Z,9.5
2018-12-18T12:56:17.164Z,6.6
2018-12-18T12:57:17.137Z,6.6
2018-12-18T12:58:17.184Z,9.5
2018-12-18T12:59:17.157Z,9.5
2018-12-18T13:00:19.306Z,9.5
2018-12-18T13:01:20.685Z,1.8
2018-12-18T13:02:23.013Z,9.5
2018-12-18T13:03:17.126Z,6.6
2018-12-18T13:04:17.160Z,12.4
2018-12-18T13:05:17.258Z,15.4
2018-12-18T13:06:20.145Z,12.4
2018-12-18T13:07:21.141Z,6.6
2018-12-18T13:08:18.744Z,6.6
2018-12-18T13:09:20.374Z,9.5
2018-12-18T13:10:17.225Z,9.5
2018-12-18T13:11:17.170Z,6.6
2018-12-18T13:12:17.116Z,6.6
2018-12-18T13:13:17.202Z,3.9
2018-12-18T13:14:17.128Z,6.6
2018-12-18T13:15:18.361Z,9.5
2018-12-18T13:16:17.145Z,12.4
2018-12-18T13:17:17.183Z,15.4
2018-12-18T13:18:17.185Z,15.4
2018-12-18T13:19:17.134Z,9.5
2018-12-18T13:20:17.176Z,9.5
2018-12-18T13:21:17.168Z,9.5
2018-12-18T13:22:17.163Z,21.3
2018-12-18T13:23:17.236Z,9.5
2018-12-18T13:24:17.144Z,12.4
2018-12-18T13:25:17.125Z,9.5
2018-12-18T13:26:21.273Z,15.4
2018-12-18T13:27:21.663Z,18.3
2018-12-18T13:28:21.529Z,21.3
2018-12-18T13:29:17.175Z,9.5
2018-12-18T13:30:17.131Z,18.3
2018-12-18T13:31:17.254Z,18.3
2018-12-18T13:32:17.246Z,18.3
2018-12-18T13:33:17.273Z,9.5
2018-12-18T13:34:17.230Z,12.4
2018-12-18T13:35:17.147Z,15.4
2018-12-18T13:36:17.163Z,6.6